Time;durP1;ratioP1;P1;durP2;ratioP2;P2;SDS_P1;SDS_P2;PMS_P1;PMS_P2;Temp;Humidity;BMP_temperature;BMP_pressure;BME280_temperature;BME280_humidity;BME280_pressure;Samples;Min_cycle;Max_cycle;Signal;HPM_P1;HPM_P2
2022/07/04 00:00:20;;;;;;;7.10;5.90;;;;;;;20.35;67.58;98024.59;105142;1285;22570;-80
2022/07/04 00:03:02;;;;;;;7.30;5.70;;;;;;;20.18;67.39;98020.96;105551;1284;25279;-80
2022/07/04 00:05:30;;;;;;;7.80;5.30;;;;;;;20.05;67.70;98018.89;105491;1285;23284;-79
2022/07/04 00:07:58;;;;;;;9.30;5.50;;;;;;;20.03;68.02;98016.41;105544;1284;22533;-80
2022/07/04 00:10:26;;;;;;;8.40;6.10;;;;;;;20.05;67.86;98009.29;105504;1285;22566;-82
2022/07/04 00:12:54;;;;;;;12.00;6.00;;;;;;;20.01;67.66;98007.63;105863;1284;24409;-84
2022/07/04 00:15:22;;;;;;;11.10;6.50;;;;;;;19.88;68.44;98005.55;105691;1284;22599;-82
2022/07/04 00:17:51;;;;;;;11.40;6.10;;;;;;;20.01;68.99;98000.83;105255;1284;23024;-80
2022/07/04 00:20:19;;;;;;;9.50;6.40;;;;;;;20.25;68.59;98007.73;105476;1285;24290;-83
2022/07/04 00:22:47;;;;;;;7.90;5.90;;;;;;;20.54;68.75;98011.22;105225;1284;22557;-82
2022/07/04 00:25:14;;;;;;;8.90;5.60;;;;;;;20.86;68.25;98010.42;105239;1284;24305;-83
2022/07/04 00:27:42;;;;;;;7.20;5.30;;;;;;;21.21;67.26;98010.79;104998;1284;22750;-82
2022/07/04 00:30:11;;;;;;;7.60;5.90;;;;;;;21.45;66.69;98009.16;105024;1284;22633;-83
2022/07/04 00:32:39;;;;;;;9.50;5.80;;;;;;;21.45;66.32;98012.06;105057;1284;23582;-83
2022/07/04 00:35:08;;;;;;;5.80;5.20;;;;;;;21.45;66.18;98013.30;104968;1285;22762;-84
2022/07/04 00:37:36;;;;;;;6.10;5.20;;;;;;;21.33;65.94;98012.41;105025;1284;23983;-83
2022/07/04 00:40:05;;;;;;;8.00;5.10;;;;;;;21.41;65.78;98016.94;104942;1284;22562;-83
2022/07/04 00:42:33;;;;;;;7.70;5.20;;;;;;;21.40;65.61;98009.88;105113;1284;22564;-83
2022/07/04 00:45:01;;;;;;;5.60;4.80;;;;;;;21.33;65.71;98009.50;105044;1284;22752;-82
2022/07/04 00:47:29;;;;;;;6.60;4.50;;;;;;;21.38;65.79;98006.95;105165;1284;22566;-82
2022/07/04 00:49:57;;;;;;;8.80;4.10;;;;;;;21.47;65.57;98006.15;105400;1284;22594;-83
2022/07/04 00:52:25;;;;;;;5.40;4.10;;;;;;;21.56;65.11;98004.25;105216;1284;24323;-80
2022/07/04 00:54:53;;;;;;;5.90;4.10;;;;;;;21.74;65.03;98000.44;105197;1285;22536;-81
2022/07/04 00:57:22;;;;;;;5.50;4.10;;;;;;;21.96;64.22;98001.44;105190;1284;22973;-81
2022/07/04 00:59:49;;;;;;;4.60;3.90;;;;;;;22.05;63.79;98003.45;105483;1284;22570;-81
2022/07/04 01:02:17;;;;;;;6.10;4.10;;;;;;;22.16;63.30;97996.86;105415;1285;24454;-81
2022/07/04 01:04:45;;;;;;;6.60;4.00;;;;;;;22.26;63.19;97995.66;105187;1284;25420;-80
2022/07/04 01:07:14;;;;;;;5.20;3.80;;;;;;;22.24;63.03;97998.86;105157;1284;22584;-81
2022/07/04 01:09:43;;;;;;;7.20;4.00;;;;;;;22.24;63.13;97995.25;105176;1284;26639;-80
2022/07/04 01:12:11;;;;;;;5.10;4.00;;;;;;;22.21;63.18;97993.42;105173;1284;24220;-81
2022/07/04 01:14:39;;;;;;;4.50;3.80;;;;;;;22.14;62.90;97991.89;105195;1284;24018;-81
2022/07/04 01:17:07;;;;;;;6.50;4.50;;;;;;;22.11;62.59;97990.98;105213;1284;25402;-80
2022/07/04 01:19:35;;;;;;;5.60;3.60;;;;;;;22.13;62.73;97987.72;105177;1284;22712;-80
2022/07/04 01:22:06;;;;;;;5.50;4.70;;;;;;;22.17;62.40;97983.00;105181;1284;22700;-80
2022/07/04 01:24:34;;;;;;;4.40;3.70;;;;;;;22.10;62.03;97985.16;105332;1284;24255;-80
2022/07/04 01:27:02;;;;;;;7.60;4.70;;;;;;;22.06;62.43;97988.02;105178;1284;26501;-81
2022/07/04 01:29:32;;;;;;;7.70;5.80;;;;;;;22.11;62.05;97988.16;105212;1284;25239;-80
2022/07/04 01:32:05;;;;;;;9.20;5.20;;;;;;;21.94;62.19;97993.04;105232;1284;25953;-81
2022/07/04 01:34:33;;;;;;;5.40;4.70;;;;;;;21.82;62.44;97990.52;105268;1284;24022;-82
2022/07/04 01:37:05;;;;;;;5.20;4.40;;;;;;;21.82;62.58;97991.77;105185;1284;22564;-82
2022/07/04 01:39:32;;;;;;;7.20;4.60;;;;;;;21.79;62.43;97991.89;105447;1284;25365;-82
2022/07/04 01:42:00;;;;;;;5.70;4.40;;;;;;;21.65;62.69;97995.92;105441;1284;25231;-80
2022/07/04 01:44:29;;;;;;;5.40;4.80;;;;;;;21.52;63.07;97999.17;105357;1284;24376;-83
2022/07/04 01:46:56;;;;;;;7.60;4.30;;;;;;;21.33;62.78;97993.84;105362;1284;24284;-82
2022/07/04 01:49:25;;;;;;;7.50;5.40;;;;;;;21.06;63.13;97993.79;105046;1284;23236;-83
2022/07/04 01:51:53;;;;;;;6.80;5.50;;;;;;;20.82;63.69;97993.29;105061;1285;22566;-81
2022/07/04 01:54:21;;;;;;;6.10;5.50;;;;;;;20.66;63.93;97994.17;104870;1284;228790;-82
2022/07/04 01:56:49;;;;;;;5.70;4.60;;;;;;;20.46;63.99;97997.45;104998;1284;25391;-81
2022/07/04 01:59:17;;;;;;;6.40;5.40;;;;;;;20.35;64.56;98002.24;105191;1285;22586;-84
2022/07/04 02:01:44;;;;;;;6.50;5.10;;;;;;;20.25;63.74;98007.75;105470;1284;22555;-84
2022/07/04 02:04:12;;;;;;;6.80;5.50;;;;;;;19.89;63.30;98007.36;105436;1284;22881;-83
2022/07/04 02:06:40;;;;;;;7.30;4.80;;;;;;;19.51;63.45;98009.37;105430;1284;22643;-84
2022/07/04 02:09:15;;;;;;;6.10;5.10;;;;;;;19.17;63.62;98008.34;105391;1285;22655;-84
2022/07/04 02:14:33;;;;;;;7.50;5.30;;;;;;;18.39;64.65;98010.24;105292;1284;24429;-83
2022/07/04 02:17:01;;;;;;;5.90;4.90;;;;;;;18.15;65.26;98016.01;105275;1285;24440;-82
2022/07/04 02:19:29;;;;;;;6.20;5.10;;;;;;;17.97;65.20;98019.70;105251;1284;23076;-82
2022/07/04 02:21:58;;;;;;;6.90;4.50;;;;;;;17.81;65.63;98023.49;105267;1284;25241;-84
2022/07/04 02:24:26;;;;;;;6.30;4.90;;;;;;;17.65;65.75;98023.45;105295;1285;25660;-83
2022/07/04 02:26:54;;;;;;;6.10;5.50;;;;;;;17.49;66.15;98022.94;105282;1284;25417;-83
2022/07/04 02:29:22;;;;;;;6.70;5.40;;;;;;;17.38;66.43;98025.17;105263;1284;22636;-83
2022/07/04 02:31:50;;;;;;;8.50;4.90;;;;;;;17.27;66.70;98019.38;105322;1284;24122;-83
2022/07/04 02:34:18;;;;;;;8.10;5.00;;;;;;;17.17;66.97;98021.67;105254;1284;22610;-83
2022/07/04 02:36:46;;;;;;;6.20;5.50;;;;;;;16.99;67.09;98023.64;105189;1285;22570;-83
2022/07/04 02:39:14;;;;;;;7.00;5.80;;;;;;;16.85;67.79;98023.27;105325;1284;22553;-82
2022/07/04 02:41:42;;;;;;;6.80;6.10;;;;;;;16.77;68.35;98028.10;105267;1284;22588;-83
2022/07/04 02:44:10;;;;;;;7.40;5.60;;;;;;;16.70;68.49;98022.42;105286;1284;22587;-83
2022/07/04 02:46:38;;;;;;;6.20;5.60;;;;;;;16.69;68.66;98027.36;105263;1284;22631;-82
2022/07/04 02:49:06;;;;;;;8.10;5.60;;;;;;;16.67;68.65;98023.01;105286;1284;24275;-82
2022/07/04 02:51:34;;;;;;;7.30;6.20;;;;;;;16.64;69.33;98023.05;105243;1285;24131;-82
2022/07/04 02:54:02;;;;;;;8.50;6.00;;;;;;;16.62;69.35;98016.68;105434;1284;24222;-83
2022/07/04 02:56:30;;;;;;;10.60;6.60;;;;;;;16.55;69.38;98016.61;105482;1284;22561;-82
2022/07/04 02:58:58;;;;;;;7.50;6.30;;;;;;;16.47;69.71;98017.48;106046;1284;24010;-84
2022/07/04 03:01:26;;;;;;;7.80;6.10;;;;;;;16.43;69.87;98018.59;105557;1284;22661;-84
2022/07/04 03:03:54;;;;;;;6.80;5.60;;;;;;;16.38;69.73;98013.19;105363;1284;22573;-83
2022/07/04 03:06:22;;;;;;;8.20;7.10;;;;;;;16.31;70.23;98012.55;105240;1284;23222;-83
2022/07/04 03:08:52;;;;;;;8.60;6.50;;;;;;;16.19;70.41;98017.80;105248;1284;23960;-83
2022/07/04 03:11:20;;;;;;;8.60;7.60;;;;;;;16.07;70.75;98018.46;105239;1284;22563;-84
2022/07/04 03:13:48;;;;;;;9.00;7.20;;;;;;;16.00;70.88;98020.66;105244;1284;22560;-84
2022/07/04 03:16:16;;;;;;;7.70;7.00;;;;;;;15.97;71.27;98022.26;105323;1284;22767;-83
2022/07/04 03:18:44;;;;;;;8.60;7.80;;;;;;;16.00;71.62;98018.01;105372;1284;22569;-83
2022/07/04 03:21:12;;;;;;;8.00;7.20;;;;;;;16.04;71.89;98015.52;105384;1284;22556;-84
2022/07/04 03:23:40;;;;;;;9.20;7.70;;;;;;;16.08;72.12;98016.08;105339;1284;22599;-84
2022/07/04 03:26:09;;;;;;;9.10;8.20;;;;;;;16.13;72.14;98014.08;105201;1284;24375;-84
2022/07/04 03:28:37;;;;;;;9.70;8.70;;;;;;;16.11;72.14;98015.65;105217;1284;22569;-84
2022/07/04 03:31:05;;;;;;;11.20;8.70;;;;;;;16.11;72.15;98014.63;105214;1284;22630;-84
2022/07/04 03:33:32;;;;;;;9.60;8.60;;;;;;;16.15;72.33;98014.31;105257;1284;22641;-83
2022/07/04 03:36:00;;;;;;;12.00;9.50;;;;;;;16.16;72.37;98014.59;105269;1284;24266;-84
2022/07/04 03:38:28;;;;;;;9.90;8.80;;;;;;;16.19;72.62;98017.02;105225;1284;22688;-83
2022/07/04 03:40:56;;;;;;;10.20;9.20;;;;;;;16.18;72.91;98011.86;105243;1284;25425;-83
2022/07/04 03:43:24;;;;;;;11.00;10.00;;;;;;;16.15;73.04;98017.73;105260;1284;22748;-82
2022/07/04 03:45:52;;;;;;;15.00;10.30;;;;;;;16.12;73.25;98020.90;105279;1284;22715;-82
2022/07/04 03:48:20;;;;;;;11.20;9.00;;;;;;;16.11;73.49;98018.91;105236;1285;22561;-83
2022/07/04 03:50:48;;;;;;;10.80;9.70;;;;;;;16.14;73.41;98018.70;105305;1284;25400;-82
2022/07/04 03:53:16;;;;;;;11.00;9.90;;;;;;;16.19;73.54;98018.82;105305;1286;22575;-82
2022/07/04 03:55:44;;;;;;;13.80;12.50;;;;;;;16.26;73.64;98023.83;105298;1284;22716;-82
2022/07/04 03:58:12;;;;;;;15.30;12.30;;;;;;;16.33;73.98;98024.63;105332;1284;24220;-83
2022/07/04 04:00:41;;;;;;;12.90;11.60;;;;;;;16.42;74.16;98033.60;105246;1284;24220;-84
2022/07/04 04:05:56;;;;;;;15.00;11.10;;;;;;;16.57;74.29;98035.58;105503;1284;22568;-83
2022/07/04 04:08:24;;;;;;;12.20;10.90;;;;;;;16.66;74.39;98034.30;105459;1284;22559;-82
2022/07/04 04:10:52;;;;;;;11.90;10.70;;;;;;;16.77;74.45;98030.98;105598;1284;25584;-87
2022/07/04 04:13:20;;;;;;;14.50;11.90;;;;;;;16.87;74.49;98029.25;105946;1284;22949;-83
2022/07/04 04:15:48;;;;;;;13.50;11.10;;;;;;;16.97;74.68;98034.17;105427;1285;24284;-85
2022/07/04 04:18:16;;;;;;;12.80;11.40;;;;;;;17.05;74.63;98042.48;105373;1284;22627;-82
2022/07/04 04:20:43;;;;;;;11.80;10.70;;;;;;;17.15;74.90;98043.02;105350;1284;25347;-83
2022/07/04 04:23:11;;;;;;;12.40;11.00;;;;;;;17.26;74.91;98035.70;105301;1286;22506;-83
2022/07/04 04:25:39;;;;;;;14.10;10.30;;;;;;;17.42;75.02;98035.56;105318;1284;22631;-82
2022/07/04 04:28:07;;;;;;;14.30;10.70;;;;;;;17.56;74.89;98036.73;105294;1284;25248;-83
2022/07/04 04:30:35;;;;;;;13.50;11.30;;;;;;;17.67;74.84;98034.48;105224;1285;24205;-83
2022/07/04 04:33:03;;;;;;;12.40;11.10;;;;;;;17.80;75.31;98026.80;105313;1284;22567;-83
2022/07/04 04:35:31;;;;;;;13.10;11.30;;;;;;;17.96;75.18;98025.76;105325;1284;25282;-83
2022/07/04 04:37:59;;;;;;;10.20;8.80;;;;;;;18.10;74.95;98024.98;105293;1284;23327;-83
2022/07/04 04:40:27;;;;;;;23.00;9.60;;;;;;;18.21;75.27;98015.24;105318;1284;24436;-82
2022/07/04 04:42:55;;;;;;;9.40;7.80;;;;;;;18.44;75.28;98014.59;105283;1284;25412;-82
2022/07/04 04:45:22;;;;;;;8.30;7.50;;;;;;;18.58;75.42;98007.09;105255;1284;22624;-82
2022/07/04 04:47:53;;;;;;;9.30;8.20;;;;;;;18.72;75.29;98010.20;105290;1284;22692;-81
2022/07/04 04:50:21;;;;;;;9.70;7.50;;;;;;;18.86;75.47;98010.90;105255;1284;22739;-83
2022/07/04 04:52:48;;;;;;;10.60;8.20;;;;;;;18.98;75.45;98021.41;105024;1286;22597;-82
2022/07/04 04:55:16;;;;;;;8.50;7.60;;;;;;;19.05;75.31;98025.35;105332;1284;22891;-83
2022/07/04 04:57:44;;;;;;;9.70;8.00;;;;;;;19.16;75.40;98020.15;105294;1284;22650;-83
2022/07/04 05:00:12;;;;;;;9.00;7.40;;;;;;;19.31;75.41;98021.15;105312;1287;22540;-83
2022/07/04 05:02:40;;;;;;;9.90;7.30;;;;;;;19.44;75.46;98016.55;105348;1286;24243;-84
2022/07/04 05:05:09;;;;;;;9.30;6.90;;;;;;;19.53;75.37;98018.41;105220;1285;22677;-85
2022/07/04 05:07:36;;;;;;;9.50;7.70;;;;;;;19.59;75.20;98025.02;105466;1284;22810;-84
2022/07/04 05:10:05;;;;;;;9.70;7.70;;;;;;;19.66;74.98;98033.70;105385;1285;22594;-84
2022/07/04 05:12:33;;;;;;;10.90;7.40;;;;;;;19.72;75.22;98030.73;105415;1284;23200;-84
2022/07/04 05:15:06;;;;;;;9.60;8.40;;;;;;;19.82;75.09;98032.20;105314;1284;22700;-83
2022/07/04 05:17:34;;;;;;;9.80;8.60;;;;;;;19.88;75.07;98034.77;105284;1284;25375;-84
2022/07/04 05:20:03;;;;;;;11.20;9.60;;;;;;;19.90;75.10;98033.50;105219;1284;22690;-84
2022/07/04 05:22:31;;;;;;;10.90;9.70;;;;;;;19.91;74.87;98032.11;105267;1284;23739;-83
2022/07/04 05:24:59;;;;;;;13.30;11.20;;;;;;;19.99;75.02;98035.40;105173;1284;23011;-84
2022/07/04 05:27:27;;;;;;;9.90;8.70;;;;;;;20.10;74.99;98033.15;106863;1284;22574;-83
2022/07/04 05:29:55;;;;;;;11.40;8.10;;;;;;;20.19;74.88;98033.10;106106;1284;22592;-84
2022/07/04 05:32:24;;;;;;;9.90;8.40;;;;;;;20.23;74.75;98035.52;105394;1284;24227;-89
2022/07/04 05:34:53;;;;;;;8.80;7.40;;;;;;;20.34;74.75;98033.95;105356;1284;22574;-83
2022/07/04 05:37:20;;;;;;;8.10;7.30;;;;;;;20.41;74.52;98038.09;105206;1284;24290;-83
2022/07/04 05:39:49;;;;;;;9.00;7.10;;;;;;;20.47;74.28;98040.70;105247;1284;25380;-84
2022/07/04 05:42:17;;;;;;;8.80;7.90;;;;;;;20.52;74.25;98041.03;105249;1284;24439;-83
2022/07/04 05:44:45;;;;;;;10.30;7.30;;;;;;;20.58;74.21;98042.66;105259;1284;22638;-83
2022/07/04 05:47:13;;;;;;;8.50;7.70;;;;;;;20.62;74.19;98049.09;105176;1284;25419;-84
2022/07/04 05:49:41;;;;;;;8.40;7.60;;;;;;;20.68;74.25;98053.91;105234;1284;25424;-85
2022/07/04 05:52:09;;;;;;;11.70;7.70;;;;;;;20.76;73.99;98054.43;105252;1284;22657;-84
2022/07/04 05:54:37;;;;;;;9.20;8.30;;;;;;;20.82;73.45;98059.89;105301;1284;22574;-86
2022/07/04 05:57:05;;;;;;;10.00;9.00;;;;;;;20.82;73.66;98059.17;105302;1284;22548;-83
2022/07/04 05:59:33;;;;;;;9.80;8.80;;;;;;;20.89;73.64;98059.99;105398;1284;22558;-84
2022/07/04 06:02:01;;;;;;;10.10;9.10;;;;;;;21.00;73.54;98055.35;105252;1284;22585;-84
2022/07/04 06:04:29;;;;;;;11.40;10.30;;;;;;;21.10;73.31;98055.31;105459;1284;24490;-83
2022/07/04 06:06:57;;;;;;;12.30;10.10;;;;;;;21.17;73.16;98052.92;105678;1284;22604;-85
2022/07/04 06:09:25;;;;;;;12.30;9.90;;;;;;;21.24;73.14;98048.73;105781;1284;22552;-81
2022/07/04 06:11:53;;;;;;;11.00;9.90;;;;;;;21.36;73.03;98043.15;105458;1284;24328;-82
2022/07/04 06:14:21;;;;;;;12.90;11.00;;;;;;;21.42;72.68;98043.19;105350;1284;23689;-83
2022/07/04 06:16:49;;;;;;;11.90;10.70;;;;;;;21.45;72.59;98041.68;105279;1284;22776;-82
2022/07/04 06:19:17;;;;;;;14.90;10.40;;;;;;;21.53;72.61;98035.54;105314;1284;22697;-83
2022/07/04 06:21:45;;;;;;;10.80;9.80;;;;;;;21.63;72.76;98032.24;105530;1284;23126;-88
2022/07/04 06:24:14;;;;;;;13.50;10.90;;;;;;;21.76;72.49;98029.06;105676;1284;22766;-82
2022/07/04 06:26:42;;;;;;;11.80;10.00;;;;;;;21.91;72.15;98026.15;105448;1284;25237;-82
2022/07/04 06:29:10;;;;;;;12.30;10.90;;;;;;;22.00;72.07;98027.68;105333;1284;22676;-81
2022/07/04 06:31:38;;;;;;;12.10;9.90;;;;;;;22.08;71.55;98024.59;105326;1283;22562;-82
2022/07/04 06:36:52;;;;;;;12.40;10.20;;;;;;;22.20;71.20;98020.77;105685;1284;22587;-79
2022/07/04 06:39:20;;;;;;;11.40;10.10;;;;;;;22.30;70.99;98024.90;105686;1284;25415;-82
2022/07/04 06:41:48;;;;;;;11.10;10.00;;;;;;;22.40;70.84;98028.86;105671;1284;24278;-82
2022/07/04 06:45:10;;;;;;;12.60;11.30;;;;;;;22.48;70.29;98027.40;105024;1284;22583;-82
2022/07/04 06:47:38;;;;;;;10.30;9.30;;;;;;;22.50;69.63;98031.88;105491;1284;26646;-83
2022/07/04 06:50:06;;;;;;;10.80;9.80;;;;;;;22.57;69.59;98036.52;105387;1284;22586;-81
2022/07/04 06:52:54;;;;;;;12.30;10.00;;;;;;;22.68;69.30;98037.66;105341;1284;22681;-81
2022/07/04 06:55:22;;;;;;;14.80;10.80;;;;;;;22.86;69.48;98040.05;105319;1284;22709;-81
2022/07/04 06:57:50;;;;;;;13.70;11.30;;;;;;;23.00;68.95;98045.48;105394;1284;22639;-83
2022/07/04 07:00:18;;;;;;;16.90;11.00;;;;;;;23.02;67.55;98042.60;105318;1284;22714;-82
2022/07/04 07:02:46;;;;;;;16.40;12.80;;;;;;;23.06;67.93;98038.47;105310;1284;22563;-82
2022/07/04 07:05:14;;;;;;;12.60;10.30;;;;;;;23.12;67.67;98035.46;105469;1284;25325;-81
2022/07/04 07:07:42;;;;;;;13.70;10.50;;;;;;;23.23;67.98;98028.80;105418;1284;22602;-81
2022/07/04 07:10:10;;;;;;;11.60;10.40;;;;;;;23.33;67.47;98028.89;105333;1284;22570;-83
2022/07/04 07:12:55;;;;;;;15.00;11.00;;;;;;;23.43;67.29;98023.23;105302;1284;23251;-82
2022/07/04 07:15:23;;;;;;;12.30;10.50;;;;;;;23.50;67.00;98022.59;105201;1284;22713;-83
2022/07/04 07:17:57;;;;;;;12.20;11.10;;;;;;;23.61;66.92;98024.62;105285;1284;22571;-82
2022/07/04 07:20:24;;;;;;;14.40;12.20;;;;;;;23.70;65.93;98025.81;105300;1284;23329;-81
2022/07/04 07:22:52;;;;;;;13.40;10.40;;;;;;;23.78;65.08;98032.64;105306;1284;22584;-82
2022/07/04 07:25:20;;;;;;;11.70;9.30;;;;;;;23.80;65.12;98029.34;105318;1284;24221;-83
2022/07/04 07:27:48;;;;;;;11.10;9.90;;;;;;;23.90;65.06;98029.73;105318;1284;22603;-82
2022/07/04 07:30:16;;;;;;;14.20;11.50;;;;;;;24.01;64.86;98033.81;105326;1284;22769;-81
2022/07/04 07:32:44;;;;;;;13.90;9.20;;;;;;;24.12;63.89;98035.28;105333;1284;25479;-82
2022/07/04 07:35:12;;;;;;;10.30;9.20;;;;;;;24.22;63.30;98036.59;105348;1284;24202;-81
2022/07/04 07:37:41;;;;;;;10.70;9.50;;;;;;;24.32;63.70;98030.89;105305;1284;22553;-82
2022/07/04 07:40:10;;;;;;;13.20;9.80;;;;;;;24.43;62.63;98030.73;105437;1284;22688;-82
2022/07/04 07:42:37;;;;;;;11.30;8.20;;;;;;;24.46;62.08;98028.14;105447;1284;23618;-82
2022/07/04 07:45:06;;;;;;;12.40;8.40;;;;;;;24.54;60.98;98031.55;105421;1284;24122;-82
2022/07/04 07:47:34;;;;;;;8.50;7.60;;;;;;;24.66;61.00;98031.05;105442;1284;22673;-82
2022/07/04 07:50:03;;;;;;;12.50;7.70;;;;;;;24.85;60.97;98030.22;105408;1284;22539;-82
2022/07/04 07:52:31;;;;;;;8.60;7.80;;;;;;;24.99;60.27;98029.30;105324;1284;25371;-82
2022/07/04 07:54:59;;;;;;;8.90;8.00;;;;;;;25.04;57.01;98031.14;105316;1284;22635;-81
2022/07/04 07:57:29;;;;;;;9.50;7.80;;;;;;;25.03;57.86;98030.97;105339;1284;25396;-82
2022/07/04 07:59:57;;;;;;;12.80;8.70;;;;;;;25.13;58.43;98028.16;105427;1284;22551;-83
2022/07/04 08:05:12;;;;;;;9.30;7.50;;;;;;;25.23;56.55;98029.60;105404;1284;25435;-82
2022/07/04 08:07:41;;;;;;;9.60;7.10;;;;;;;25.27;55.95;98027.48;105256;1285;22560;-81
2022/07/04 08:10:09;;;;;;;9.90;7.90;;;;;;;25.38;56.57;98024.65;105398;1284;25417;-82
2022/07/04 08:12:36;;;;;;;10.20;9.00;;;;;;;25.55;56.83;98028.66;105431;1284;22552;-83
2022/07/04 08:15:05;;;;;;;12.10;7.30;;;;;;;25.61;55.62;98031.27;105401;1284;23036;-82
2022/07/04 08:17:35;;;;;;;10.80;7.70;;;;;;;25.62;54.03;98037.33;105396;1284;25123;-81
2022/07/04 08:20:04;;;;;;;12.70;8.20;;;;;;;25.58;52.86;98038.77;105584;1283;22670;-82
2022/07/04 08:22:32;;;;;;;9.40;8.40;;;;;;;25.54;53.27;98040.80;105446;1284;25420;-83
2022/07/04 08:25:00;;;;;;;11.00;9.00;;;;;;;25.55;53.17;98040.24;105416;1284;24104;-83
2022/07/04 08:27:28;;;;;;;11.60;8.30;;;;;;;25.63;54.08;98035.28;105363;1284;22874;-82
2022/07/04 08:30:00;;;;;;;10.20;7.80;;;;;;;25.84;53.66;98039.30;105393;1283;22639;-83
2022/07/04 08:32:28;;;;;;;9.50;8.20;;;;;;;26.00;53.25;98031.94;105395;1284;22742;-83
2022/07/04 08:34:56;;;;;;;10.10;6.90;;;;;;;26.10;52.76;98027.42;105415;1284;22572;-81
2022/07/04 08:37:24;;;;;;;14.80;10.30;;;;;;;26.21;52.71;98031.65;105404;1284;22589;-82
2022/07/04 08:39:52;;;;;;;18.70;12.00;;;;;;;26.26;51.04;98042.05;105417;1284;22552;-82
2022/07/04 08:42:22;;;;;;;10.10;8.60;;;;;;;26.34;50.73;98046.20;105228;1284;22703;-82
2022/07/04 08:44:55;;;;;;;8.70;6.70;;;;;;;26.34;49.52;98052.83;105433;1284;23974;-81
2022/07/04 08:47:24;;;;;;;11.60;6.90;;;;;;;26.28;49.93;98045.35;105356;1284;24901;-81
2022/07/04 08:49:59;;;;;;;7.80;6.20;;;;;;;26.37;49.15;98049.02;105354;1284;25428;-81
2022/07/04 08:52:39;;;;;;;8.00;7.20;;;;;;;26.43;48.02;98050.90;105347;1284;24204;-82
2022/07/04 09:00:46;;;;;;;8.30;6.40;;;;;;;26.57;47.18;98044.33;105226;1284;22643;-82
2022/07/04 09:03:13;;;;;;;6.20;5.50;;;;;;;26.56;47.48;98040.23;105361;1284;23679;-82
2022/07/04 09:05:41;;;;;;;9.90;6.50;;;;;;;26.69;47.35;98039.60;105451;1284;22561;-83
2022/07/04 09:08:09;;;;;;;8.40;6.40;;;;;;;26.86;48.06;98040.30;105437;1284;22666;-82
2022/07/04 09:10:38;;;;;;;7.30;6.60;;;;;;;27.12;47.49;98035.81;105394;1284;25238;-82
2022/07/04 09:13:08;;;;;;;10.30;6.70;;;;;;;27.37;48.12;98032.88;105471;1284;24257;-82
2022/07/04 09:15:41;;;;;;;8.00;7.00;;;;;;;27.64;47.27;98035.41;105240;1284;22560;-82
2022/07/04 09:18:24;;;;;;;7.90;7.10;;;;;;;27.80;47.24;98031.80;105401;1284;22704;-83
2022/07/04 09:21:00;;;;;;;7.50;6.80;;;;;;;27.96;47.87;98029.98;105066;1284;22570;-82
2022/07/04 09:23:31;;;;;;;12.10;7.20;;;;;;;28.14;46.24;98027.19;105420;1284;25368;-82
2022/07/04 09:26:21;;;;;;;8.80;5.90;;;;;;;28.15;45.59;98024.39;105462;1284;22563;-82
2022/07/04 09:28:56;;;;;;;10.70;6.40;;;;;;;28.24;45.30;98020.66;105346;1284;22738;-82
2022/07/04 09:31:29;;;;;;;8.60;6.50;;;;;;;28.44;45.85;98015.45;105289;1284;22558;-81
2022/07/04 09:33:59;;;;;;;7.00;6.30;;;;;;;28.56;44.52;98020.86;105300;1284;22665;-81
2022/07/04 09:36:29;;;;;;;7.60;6.50;;;;;;;28.48;45.04;98020.23;105406;1284;22578;-82
2022/07/04 09:39:06;;;;;;;8.10;5.90;;;;;;;28.46;44.83;98017.96;105516;1283;23949;-82
2022/07/04 09:41:52;;;;;;;8.60;5.50;;;;;;;28.41;42.24;98018.17;105186;1285;23202;-82
2022/07/04 09:44:22;;;;;;;11.00;6.20;;;;;;;28.22;42.19;98016.64;105393;1284;22555;-82
2022/07/04 09:46:50;;;;;;;6.50;5.30;;;;;;;28.19;42.45;98015.33;105417;1284;24405;-82
2022/07/04 09:49:19;;;;;;;6.10;5.10;;;;;;;28.30;42.97;98004.82;105105;1284;22834;-82
2022/07/04 09:51:49;;;;;;;8.00;5.70;;;;;;;28.55;41.00;98001.14;105510;1284;22555;-81
2022/07/04 09:54:22;;;;;;;7.30;5.80;;;;;;;28.67;41.49;98002.71;105486;1284;24217;-86
2022/07/04 09:56:52;;;;;;;10.50;6.10;;;;;;;28.89;41.39;98001.15;105421;1284;23351;-84
2022/07/04 09:59:22;;;;;;;9.10;5.90;;;;;;;29.12;41.94;97998.61;105446;1284;22563;-85
2022/07/04 10:02:07;;;;;;;7.30;6.10;;;;;;;29.29;41.33;97999.83;105196;1284;22640;-85
2022/07/04 10:04:47;;;;;;;9.40;6.00;;;;;;;29.37;41.71;97990.50;105459;1284;23335;-84
2022/07/04 10:07:30;;;;;;;8.30;5.90;;;;;;;29.44;41.75;97990.38;105201;1284;22722;-85
2022/07/04 10:09:58;;;;;;;6.70;5.30;;;;;;;29.56;41.34;97988.93;105189;1284;22570;-85
2022/07/04 10:12:28;;;;;;;8.20;6.00;;;;;;;29.76;41.32;97989.14;105441;1284;24227;-85
2022/07/04 10:14:58;;;;;;;13.60;7.80;;;;;;;29.89;41.28;97990.48;105511;1284;22727;-85
2022/07/04 10:17:26;;;;;;;7.50;6.00;;;;;;;29.84;39.98;97990.89;105479;1284;22579;-84
2022/07/04 10:19:55;;;;;;;7.40;6.40;;;;;;;29.62;39.41;97989.54;105537;1284;23947;-84
2022/07/04 10:22:24;;;;;;;8.30;6.00;;;;;;;29.47;40.08;97986.23;105111;1285;24244;-85
2022/07/04 10:24:52;;;;;;;9.40;6.10;;;;;;;29.50;40.33;97986.08;105448;1284;24104;-84
2022/07/04 10:27:20;;;;;;;8.10;6.40;;;;;;;29.58;40.47;97986.90;105414;1284;24349;-84
2022/07/04 10:29:49;;;;;;;7.60;6.30;;;;;;;29.65;40.54;97988.39;105448;1284;22699;-84
2022/07/04 10:32:18;;;;;;;7.60;6.70;;;;;;;29.85;39.90;97987.22;105479;1284;25482;-84
2022/07/04 10:34:47;;;;;;;11.80;7.40;;;;;;;29.78;39.99;97985.77;105257;1284;22556;-85
2022/07/04 10:37:16;;;;;;;10.60;6.40;;;;;;;29.62;39.98;97988.98;105121;1285;24221;-84
2022/07/04 10:39:44;;;;;;;8.40;6.10;;;;;;;29.82;41.14;97987.05;105470;1284;24432;-85
2022/07/04 10:42:24;;;;;;;7.70;6.90;;;;;;;30.05;39.94;97989.93;105414;1284;23215;-84
2022/07/04 10:44:53;;;;;;;8.40;6.50;;;;;;;30.05;39.63;97985.25;105492;1284;22583;-82
2022/07/04 10:47:27;;;;;;;9.70;6.10;;;;;;;30.00;40.37;97990.67;105414;1284;23563;-85
2022/07/04 10:49:56;;;;;;;8.70;5.90;;;;;;;29.90;38.76;97989.91;105422;1284;22603;-83
2022/07/04 10:52:24;;;;;;;8.10;5.10;;;;;;;29.69;38.69;97998.94;105295;1284;25527;-83
2022/07/04 10:54:52;;;;;;;8.60;5.40;;;;;;;29.63;38.52;97992.62;105293;1284;24226;-84
2022/07/04 10:57:22;;;;;;;7.50;5.40;;;;;;;29.77;38.87;97989.17;105199;1284;22557;-85
2022/07/04 10:59:53;;;;;;;8.20;5.40;;;;;;;29.83;38.64;97989.17;105297;1284;25580;-83
2022/07/04 11:02:22;;;;;;;7.20;5.20;;;;;;;29.89;38.24;97985.88;105320;1284;22566;-85
2022/07/04 11:04:57;;;;;;;7.70;4.70;;;;;;;29.82;37.97;97987.04;105432;1284;22679;-83
2022/07/04 11:07:37;;;;;;;8.80;4.80;;;;;;;29.71;37.69;97990.73;105388;1284;22632;-83
2022/07/04 11:10:21;;;;;;;6.80;4.60;;;;;;;29.71;38.49;97991.22;105313;1284;24929;-83
2022/07/04 11:12:53;;;;;;;13.50;4.90;;;;;;;29.96;37.60;97990.73;105314;1284;23992;-84
2022/07/04 11:15:24;;;;;;;7.80;4.70;;;;;;;30.06;38.09;97984.20;105259;1284;23377;-84
2022/07/04 11:17:57;;;;;;;6.60;4.70;;;;;;;30.22;37.90;97982.23;105401;1284;22748;-85
2022/07/04 11:20:27;;;;;;;6.10;4.10;;;;;;;30.37;36.68;97985.83;105457;1284;22716;-82
2022/07/04 11:23:09;;;;;;;9.30;4.80;;;;;;;30.28;35.93;97982.82;105434;1284;22562;-84
2022/07/04 11:25:39;;;;;;;10.60;5.00;;;;;;;30.15;36.27;97976.80;105490;1284;22708;-82
2022/07/04 11:28:33;;;;;;;7.70;4.30;;;;;;;30.23;36.09;97977.52;105549;1284;24367;-83
2022/07/04 11:36:16;;;;;;;6.70;3.90;;;;;;;30.40;34.53;97978.92;105534;1284;24497;-82
2022/07/04 11:38:58;;;;;;;8.90;4.10;;;;;;;30.33;35.26;97970.02;105677;1284;24468;-82
2022/07/04 11:47:15;;;;;;;6.50;4.10;;;;;;;30.81;34.98;97961.28;105323;1284;22572;-83
2022/07/04 11:49:48;;;;;;;6.20;4.10;;;;;;;30.93;34.56;97963.30;105438;1284;26693;-83
2022/07/04 11:52:19;;;;;;;5.60;4.10;;;;;;;30.73;34.63;97953.25;105288;1284;22579;-82
2022/07/04 11:55:05;;;;;;;5.80;3.80;;;;;;;30.59;34.94;97951.90;105274;1284;22555;-83
2022/07/04 11:57:35;;;;;;;5.00;4.00;;;;;;;30.80;34.82;97951.91;105260;1284;25658;-85
2022/07/04 12:00:10;;;;;;;5.00;3.40;;;;;;;31.01;34.04;97952.55;105295;1283;22581;-85